ADDS METAR Data INFO
IDs: Format: Raw Decoded Include TAF

Data at: 1940 UTC 18 Feb 2018

KAIB 181935Z AUTO 23019G29KT 10SM CLR 13/M08 A2980 RMK AO2
KAIB 181915Z AUTO 22019G24KT 183V243 10SM CLR 13/M08 A2981 RMK AO2
KAIB 181855Z AUTO 19015G23KT 10SM CLR 12/M08 A2983 RMK AO2
KAIB 181835Z AUTO 20016G23KT 10SM CLR 12/M07 A2984 RMK AO2
KAIB 181815Z AUTO 22013G17KT 10SM CLR 12/M07 A2984 RMK AO2
KAIB 181735Z AUTO 20010G21KT 10SM CLR 11/M07 A2986 RMK AO2
KAIB 181715Z AUTO 19013G19KT 10SM CLR 11/M07 A2987 RMK AO2
KAIB 181655Z AUTO 19015G20KT 10SM CLR 10/M07 A2988 RMK AO2
KAIB 181635Z AUTO 20014G22KT 10SM CLR 10/M07 A2988 RMK AO2
KAIB 181615Z AUTO 20013G19KT 10SM CLR 09/M07 A2989 RMK AO2
KAIB 181555Z AUTO 21007KT 10SM CLR 08/M06 A2990 RMK AO2
KAIB 181535Z AUTO 19012KT 10SM CLR 07/M07 A2991 RMK AO2
KAIB 181515Z AUTO 19010G14KT 10SM CLR 07/M07 A2991 RMK AO2
KAIB 181435Z AUTO 17009KT 10SM CLR 04/M07 A2991 RMK AO2
KAIB 181415Z AUTO 17004KT 10SM CLR 03/M08 A2992 RMK AO2
KAIB 181355Z AUTO 19006KT 10SM CLR 02/M08 A2992 RMK AO2
KAIB 181335Z AUTO 00000KT 10SM CLR 02/M08 A2993 RMK AO2
KAIB 181315Z AUTO 00000KT 10SM CLR 01/M08 A2994 RMK AO2
KAIB 181255Z AUTO 32005KT 10SM CLR 00/M08 A2993 RMK AO2
KAIB 181215Z AUTO 34006KT 10SM CLR 00/M08 A2993 RMK AO2
KAIB 181155Z AUTO 00000KT 10SM CLR 00/M08 A2993 RMK AO2
KAIB 181135Z AUTO 35003KT 10SM CLR 00/M08 A2994 RMK AO2
KAIB 181115Z AUTO 00000KT 10SM CLR 00/M08 A2994 RMK AO2
KAIB 181055Z AUTO 00000KT 10SM CLR 01/M08 A2995 RMK AO2
KAIB 181015Z AUTO 03003KT 10SM CLR 00/M08 A2997 RMK AO2
KAIB 180935Z AUTO 07005KT 10SM CLR M01/M08 A2998 RMK AO2
KAIB 180915Z AUTO 10006KT 10SM CLR M01/M08 A2999 RMK AO2
KAIB 180855Z AUTO 17005KT 10SM CLR M01/M08 A3000 RMK AO2
KAIB 180815Z AUTO 00000KT 10SM CLR 00/M08 A3001 RMK AO2
KAIB 180755Z AUTO 03004KT 10SM CLR 00/M09 A3003 RMK AO2
KAIB 180735Z AUTO 00000KT 10SM CLR M01/M08 A3003 RMK AO2
KAIB 180715Z AUTO 06003KT 10SM CLR 00/M09 A3004 RMK AO2
KAIB 180635Z AUTO 10006KT 10SM CLR 00/M08 A3005 RMK AO2
KAIB 180615Z AUTO 11008KT 10SM CLR 00/M08 A3006 RMK AO2
KAIB 180555Z AUTO 00000KT 10SM CLR 00/M08 A3007 RMK AO2
KAIB 180535Z AUTO 11008KT 10SM CLR 01/M08 A3008 RMK AO2
KAIB 180515Z AUTO 10010KT 10SM CLR 01/M08 A3008 RMK AO2
KAIB 180455Z AUTO 09007KT 10SM CLR 01/M08 A3010 RMK AO2
KAIB 180435Z AUTO 11008KT 10SM CLR 00/M08 A3011 RMK AO2
KAIB 180415Z AUTO 09008KT 10SM CLR 01/M08 A3011 RMK AO2
KAIB 180355Z AUTO 08008KT 10SM CLR 02/M08 A3011 RMK AO2
KAIB 180335Z AUTO 10008KT 10SM CLR 03/M08 A3012 RMK AO2
KAIB 180315Z AUTO 00000KT 10SM CLR 06/M11 A3011 RMK AO2
KAIB 180255Z AUTO 19003KT 10SM CLR 06/M10 A3013 RMK AO2
KAIB 180235Z AUTO 00000KT 10SM CLR 07/M10 A3013 RMK AO2
KAIB 180215Z AUTO 00000KT 10SM CLR 06/M09 A3013 RMK AO2
KAIB 180155Z AUTO 24007KT 10SM CLR 06/M09 A3013 RMK AO2
KAIB 180135Z AUTO 26007KT 10SM CLR 06/M08 A3013 RMK AO2
KAIB 180115Z AUTO 25006KT 10SM CLR 06/M10 A3013 RMK AO2
KAIB 180055Z AUTO 26004KT 10SM CLR 08/M10 A3012 RMK AO2
KAIB 180035Z AUTO 24005KT 10SM CLR 10/M11 A3012 RMK AO2
KAIB 180015Z AUTO 21007KT 10SM CLR 11/M13 A3012 RMK AO2
KAIB 172355Z AUTO 25007KT 10SM CLR 11/M13 A3012 RMK AO2
KAIB 172335Z AUTO 24009KT 10SM CLR 12/M14 A3013 RMK AO2
KAIB 172315Z AUTO 19004KT 10SM CLR 12/M15 A3013 RMK AO2
KAIB 172255Z AUTO 22006KT 10SM CLR 12/M13 A3014 RMK AO2
KAIB 172235Z AUTO 29003KT 10SM CLR 11/M12 A3015 RMK AO2
KAIB 172215Z AUTO 30003KT 10SM CLR 11/M10 A3016 RMK AO2
KAIB 172155Z AUTO 35003KT 10SM CLR 10/M10 A3016 RMK AO2
KAIB 172135Z AUTO 35005KT 10SM CLR 10/M10 A3017 RMK AO2
KAIB 172115Z AUTO 00000KT 10SM CLR 10/M10 A3019 RMK AO2
KAIB 172055Z AUTO 31003KT 10SM CLR 10/M10 A3019 RMK AO2
KAIB 172035Z AUTO 34003KT 10SM CLR 10/M10 A3020 RMK AO2
KAIB 171955Z AUTO 00000KT 10SM CLR 08/M10 A3023 RMK AO2
KAIB 171935Z AUTO 34003KT 10SM CLR 08/M10 A3024 RMK AO2
KAIB 171915Z AUTO 00000KT 10SM CLR 07/M10 A3025 RMK AO2
KAIB 171855Z AUTO 35004KT 10SM CLR 07/M08 A3027 RMK AO2
KAIB 171835Z AUTO 00000KT 10SM CLR 06/M07 A3028 RMK AO2
KAIB 171815Z AUTO 00000KT 10SM CLR 05/M07 A3029 RMK AO2
KAIB 171755Z AUTO 00000KT 10SM CLR 03/M06 A3029 RMK AO2
KAIB 171735Z AUTO 30003KT 10SM CLR 02/M06 A3030 RMK AO2
KAIB 171715Z AUTO 00000KT 10SM CLR 02/M06 A3031 RMK AO2
KAIB 171655Z AUTO 00000KT 10SM CLR 01/M07 A3031 RMK AO2
KAIB 171635Z AUTO 00000KT 10SM CLR 00/M08 A3031 RMK AO2
KAIB 171615Z AUTO 00000KT 10SM CLR 00/M07 A3031 RMK AO2
KAIB 171555Z AUTO 00000KT 10SM CLR M01/M07 A3031 RMK AO2
KAIB 171535Z AUTO 00000KT 10SM CLR M01/M08 A3030 RMK AO2
KAIB 171515Z AUTO 00000KT 10SM CLR M02/M07 A3029 RMK AO2
KAIB 171455Z AUTO 00000KT 10SM CLR M03/M09 A3029 RMK AO2
KAIB 171435Z AUTO 08003KT 10SM CLR M05/M10 A3028 RMK AO2
KAIB 171415Z AUTO 12003KT 10SM CLR M05/M10 A3027 RMK AO2
KAIB 171355Z AUTO 00000KT 10SM CLR M05/M10 A3027 RMK AO2
KAIB 171335Z AUTO 12008KT 10SM CLR M05/M10 A3025 RMK AO2
KAIB 171315Z AUTO 13007KT 10SM CLR M04/M10 A3025 RMK AO2
KAIB 171255Z AUTO 11008KT 10SM CLR M05/M09 A3024 RMK AO2
KAIB 171235Z AUTO 10006KT 10SM CLR M05/M09 A3024 RMK AO2
KAIB 171215Z AUTO 12005KT 10SM CLR M05/M09 A3024 RMK AO2
KAIB 171155Z AUTO 12003KT 10SM CLR M04/M09 A3024 RMK AO2
KAIB 171135Z AUTO 00000KT 10SM CLR M04/M08 A3023 RMK AO2
KAIB 171115Z AUTO 10008KT 10SM CLR M03/M08 A3022 RMK AO2
KAIB 171055Z AUTO 11010KT 10SM CLR M03/M08 A3022 RMK AO2
KAIB 171035Z AUTO 11010KT 10SM CLR M03/M08 A3022 RMK AO2
KAIB 171015Z AUTO 12007KT 10SM CLR M03/M08 A3022 RMK AO2
KAIB 170955Z AUTO 11006KT 10SM CLR M03/M08 A3022 RMK AO2
KAIB 170935Z AUTO 11007KT 10SM CLR M03/M07 A3022 RMK AO2
KAIB 170915Z AUTO 12010KT 10SM CLR M03/M07 A3021 RMK AO2
KAIB 170855Z AUTO 11009KT 10SM CLR M03/M07 A3021 RMK AO2
KAIB 170835Z AUTO 11011KT 10SM CLR M02/M07 A3021 RMK AO2
KAIB 170815Z AUTO 11009KT 10SM CLR M03/M07 A3020 RMK AO2
KAIB 170755Z AUTO 12009KT 10SM CLR M03/M07 A3020 RMK AO2